sensor_id;sensor_type;location;lat;lon;timestamp;P1;durP1;ratioP1;P2;durP2;ratioP2
69280;SDS011;56392;51.082;17.080;2023-06-04T00:04:18;11.05;;;2.10;;
69280;SDS011;56392;51.082;17.080;2023-06-04T00:09:43;7.90;;;2.07;;
69280;SDS011;56392;51.082;17.080;2023-06-04T00:15:08;9.07;;;2.00;;
69280;SDS011;56392;51.082;17.080;2023-06-04T00:20:32;8.05;;;2.13;;
69280;SDS011;56392;51.082;17.080;2023-06-04T00:25:57;8.03;;;2.13;;
69280;SDS011;56392;51.082;17.080;2023-06-04T00:31:20;8.38;;;2.15;;
69280;SDS011;56392;51.082;17.080;2023-06-04T00:36:43;8.55;;;2.08;;
69280;SDS011;56392;51.082;17.080;2023-06-04T00:42:08;8.13;;;2.50;;
69280;SDS011;56392;51.082;17.080;2023-06-04T00:47:31;7.57;;;2.47;;
69280;SDS011;56392;51.082;17.080;2023-06-04T00:52:54;9.43;;;2.20;;
69280;SDS011;56392;51.082;17.080;2023-06-04T00:58:20;12.65;;;2.10;;
69280;SDS011;56392;51.082;17.080;2023-06-04T01:03:45;10.33;;;2.20;;
69280;SDS011;56392;51.082;17.080;2023-06-04T01:09:12;9.05;;;2.40;;
69280;SDS011;56392;51.082;17.080;2023-06-04T01:14:37;7.47;;;2.28;;
69280;SDS011;56392;51.082;17.080;2023-06-04T01:20:12;7.67;;;2.20;;
69280;SDS011;56392;51.082;17.080;2023-06-04T01:25:41;7.15;;;2.13;;
69280;SDS011;56392;51.082;17.080;2023-06-04T01:31:06;8.77;;;2.13;;
69280;SDS011;56392;51.082;17.080;2023-06-04T01:36:30;7.03;;;1.97;;
69280;SDS011;56392;51.082;17.080;2023-06-04T01:41:53;7.50;;;2.30;;
69280;SDS011;56392;51.082;17.080;2023-06-04T01:47:18;9.48;;;2.13;;
69280;SDS011;56392;51.082;17.080;2023-06-04T01:52:41;8.23;;;2.40;;
69280;SDS011;56392;51.082;17.080;2023-06-04T01:58:04;8.23;;;2.27;;
69280;SDS011;56392;51.082;17.080;2023-06-04T02:03:29;6.82;;;2.05;;
69280;SDS011;56392;51.082;17.080;2023-06-04T02:08:58;8.38;;;2.30;;
69280;SDS011;56392;51.082;17.080;2023-06-04T02:14:21;7.60;;;2.10;;
69280;SDS011;56392;51.082;17.080;2023-06-04T02:19:46;8.57;;;2.15;;
69280;SDS011;56392;51.082;17.080;2023-06-04T02:25:11;8.90;;;2.10;;
69280;SDS011;56392;51.082;17.080;2023-06-04T02:30:34;8.07;;;2.10;;
69280;SDS011;56392;51.082;17.080;2023-06-04T02:35:59;8.00;;;2.20;;
69280;SDS011;56392;51.082;17.080;2023-06-04T02:41:23;8.57;;;2.10;;
69280;SDS011;56392;51.082;17.080;2023-06-04T02:46:46;10.93;;;2.50;;
69280;SDS011;56392;51.082;17.080;2023-06-04T02:52:11;7.67;;;2.40;;
69280;SDS011;56392;51.082;17.080;2023-06-04T02:57:34;9.88;;;2.10;;
69280;SDS011;56392;51.082;17.080;2023-06-04T03:02:57;8.02;;;2.20;;
69280;SDS011;56392;51.082;17.080;2023-06-04T03:08:24;7.43;;;2.40;;
69280;SDS011;56392;51.082;17.080;2023-06-04T03:13:47;7.53;;;2.28;;
69280;SDS011;56392;51.082;17.080;2023-06-04T03:19:10;10.65;;;2.42;;
69280;SDS011;56392;51.082;17.080;2023-06-04T03:24:35;7.00;;;2.27;;
69280;SDS011;56392;51.082;17.080;2023-06-04T03:30:00;6.77;;;1.90;;
69280;SDS011;56392;51.082;17.080;2023-06-04T03:35:23;7.53;;;2.20;;
69280;SDS011;56392;51.082;17.080;2023-06-04T03:40:48;10.35;;;2.40;;
69280;SDS011;56392;51.082;17.080;2023-06-04T03:46:11;8.30;;;2.53;;
69280;SDS011;56392;51.082;17.080;2023-06-04T03:51:34;7.20;;;2.25;;
69280;SDS011;56392;51.082;17.080;2023-06-04T03:56:59;9.25;;;2.30;;
69280;SDS011;56392;51.082;17.080;2023-06-04T04:02:23;8.57;;;2.30;;
69280;SDS011;56392;51.082;17.080;2023-06-04T04:07:46;8.35;;;2.35;;
69280;SDS011;56392;51.082;17.080;2023-06-04T04:13:11;9.27;;;2.50;;
69280;SDS011;56392;51.082;17.080;2023-06-04T04:18:34;7.37;;;2.30;;
69280;SDS011;56392;51.082;17.080;2023-06-04T04:23:58;8.43;;;2.30;;
69280;SDS011;56392;51.082;17.080;2023-06-04T04:29:23;7.53;;;2.13;;
69280;SDS011;56392;51.082;17.080;2023-06-04T04:34:55;8.02;;;2.25;;
69280;SDS011;56392;51.082;17.080;2023-06-04T04:40:18;7.57;;;2.40;;
69280;SDS011;56392;51.082;17.080;2023-06-04T04:45:43;9.23;;;2.58;;
69280;SDS011;56392;51.082;17.080;2023-06-04T04:51:06;10.07;;;2.30;;
69280;SDS011;56392;51.082;17.080;2023-06-04T04:56:32;7.93;;;2.20;;
69280;SDS011;56392;51.082;17.080;2023-06-04T05:01:57;8.02;;;2.50;;
69280;SDS011;56392;51.082;17.080;2023-06-04T05:07:20;8.85;;;2.20;;
69280;SDS011;56392;51.082;17.080;2023-06-04T05:12:50;8.03;;;2.27;;
69280;SDS011;56392;51.082;17.080;2023-06-04T05:18:16;6.77;;;2.13;;
69280;SDS011;56392;51.082;17.080;2023-06-04T05:23:41;8.98;;;2.33;;
69280;SDS011;56392;51.082;17.080;2023-06-04T05:29:06;7.72;;;2.30;;
69280;SDS011;56392;51.082;17.080;2023-06-04T05:34:32;6.70;;;2.00;;
69280;SDS011;56392;51.082;17.080;2023-06-04T05:39:57;8.23;;;2.40;;
69280;SDS011;56392;51.082;17.080;2023-06-04T05:45:20;8.05;;;2.10;;
69280;SDS011;56392;51.082;17.080;2023-06-04T05:50:45;7.57;;;2.27;;
69280;SDS011;56392;51.082;17.080;2023-06-04T05:56:08;8.90;;;2.50;;
69280;SDS011;56392;51.082;17.080;2023-06-04T06:01:31;7.10;;;2.00;;
69280;SDS011;56392;51.082;17.080;2023-06-04T06:06:56;7.03;;;1.83;;
69280;SDS011;56392;51.082;17.080;2023-06-04T06:12:19;7.20;;;1.80;;
69280;SDS011;56392;51.082;17.080;2023-06-04T06:17:42;6.78;;;1.92;;
69280;SDS011;56392;51.082;17.080;2023-06-04T06:23:06;8.60;;;2.03;;
69280;SDS011;56392;51.082;17.080;2023-06-04T06:28:30;5.97;;;1.60;;
69280;SDS011;56392;51.082;17.080;2023-06-04T06:33:55;7.20;;;2.35;;
69280;SDS011;56392;51.082;17.080;2023-06-04T06:39:19;7.47;;;2.20;;
69280;SDS011;56392;51.082;17.080;2023-06-04T06:44:43;6.90;;;2.00;;
69280;SDS011;56392;51.082;17.080;2023-06-04T06:50:07;6.40;;;1.83;;
69280;SDS011;56392;51.082;17.080;2023-06-04T06:55:32;7.43;;;1.85;;
69280;SDS011;56392;51.082;17.080;2023-06-04T07:00:55;6.67;;;2.10;;
69280;SDS011;56392;51.082;17.080;2023-06-04T07:06:18;7.07;;;1.90;;
69280;SDS011;56392;51.082;17.080;2023-06-04T07:11:42;9.82;;;2.10;;
69280;SDS011;56392;51.082;17.080;2023-06-04T07:17:06;7.28;;;1.83;;
69280;SDS011;56392;51.082;17.080;2023-06-04T07:22:29;7.20;;;1.80;;
69280;SDS011;56392;51.082;17.080;2023-06-04T07:27:53;6.70;;;2.00;;
69280;SDS011;56392;51.082;17.080;2023-06-04T07:33:19;6.43;;;1.88;;
69280;SDS011;56392;51.082;17.080;2023-06-04T07:38:42;7.00;;;1.67;;
69280;SDS011;56392;51.082;17.080;2023-06-04T07:44:07;6.18;;;1.63;;
69280;SDS011;56392;51.082;17.080;2023-06-04T07:49:30;7.10;;;1.80;;
69280;SDS011;56392;51.082;17.080;2023-06-04T07:54:53;10.10;;;1.60;;
69280;SDS011;56392;51.082;17.080;2023-06-04T08:00:18;8.00;;;1.70;;
69280;SDS011;56392;51.082;17.080;2023-06-04T08:05:41;6.53;;;1.80;;
69280;SDS011;56392;51.082;17.080;2023-06-04T08:11:05;9.40;;;1.77;;
69280;SDS011;56392;51.082;17.080;2023-06-04T08:16:30;5.37;;;1.50;;
69280;SDS011;56392;51.082;17.080;2023-06-04T08:21:53;6.30;;;1.80;;
69280;SDS011;56392;51.082;17.080;2023-06-04T08:27:17;6.57;;;1.70;;
69280;SDS011;56392;51.082;17.080;2023-06-04T08:32:41;6.33;;;1.60;;
69280;SDS011;56392;51.082;17.080;2023-06-04T08:38:04;6.28;;;1.58;;
69280;SDS011;56392;51.082;17.080;2023-06-04T08:43:27;7.35;;;1.60;;
69280;SDS011;56392;51.082;17.080;2023-06-04T08:48:53;5.83;;;1.40;;
69280;SDS011;56392;51.082;17.080;2023-06-04T08:54:18;8.13;;;1.80;;
69280;SDS011;56392;51.082;17.080;2023-06-04T08:59:41;5.70;;;1.40;;
69280;SDS011;56392;51.082;17.080;2023-06-04T09:05:06;6.68;;;1.48;;
69280;SDS011;56392;51.082;17.080;2023-06-04T09:10:31;7.37;;;1.40;;
69280;SDS011;56392;51.082;17.080;2023-06-04T09:16:00;5.95;;;1.40;;
69280;SDS011;56392;51.082;17.080;2023-06-04T09:21:25;6.05;;;1.75;;
69280;SDS011;56392;51.082;17.080;2023-06-04T09:26:50;7.63;;;1.67;;
69280;SDS011;56392;51.082;17.080;2023-06-04T09:32:14;6.63;;;1.73;;
69280;SDS011;56392;51.082;17.080;2023-06-04T09:37:51;7.47;;;1.90;;
69280;SDS011;56392;51.082;17.080;2023-06-04T09:43:20;5.70;;;1.47;;
69280;SDS011;56392;51.082;17.080;2023-06-04T09:48:44;6.33;;;1.47;;
69280;SDS011;56392;51.082;17.080;2023-06-04T09:54:09;6.43;;;1.50;;
69280;SDS011;56392;51.082;17.080;2023-06-04T09:59:32;6.20;;;1.50;;
69280;SDS011;56392;51.082;17.080;2023-06-04T10:05:02;4.97;;;1.37;;
69280;SDS011;56392;51.082;17.080;2023-06-04T10:10:33;6.15;;;1.20;;
69280;SDS011;56392;51.082;17.080;2023-06-04T10:15:57;5.78;;;1.38;;
69280;SDS011;56392;51.082;17.080;2023-06-04T10:21:21;5.47;;;1.40;;
69280;SDS011;56392;51.082;17.080;2023-06-04T10:26:46;4.90;;;1.30;;
69280;SDS011;56392;51.082;17.080;2023-06-04T10:32:11;4.93;;;1.40;;
69280;SDS011;56392;51.082;17.080;2023-06-04T10:37:34;6.30;;;1.73;;
69280;SDS011;56392;51.082;17.080;2023-06-04T10:43:04;9.27;;;1.70;;
69280;SDS011;56392;51.082;17.080;2023-06-04T10:48:27;5.40;;;1.27;;
69280;SDS011;56392;51.082;17.080;2023-06-04T10:53:50;7.60;;;1.58;;
69280;SDS011;56392;51.082;17.080;2023-06-04T10:59:15;7.73;;;1.30;;
69280;SDS011;56392;51.082;17.080;2023-06-04T11:04:39;5.63;;;1.52;;
69280;SDS011;56392;51.082;17.080;2023-06-04T11:10:04;7.72;;;1.40;;
69280;SDS011;56392;51.082;17.080;2023-06-04T11:15:36;6.43;;;1.70;;
69280;SDS011;56392;51.082;17.080;2023-06-04T11:21:00;7.95;;;1.70;;
69280;SDS011;56392;51.082;17.080;2023-06-04T11:26:29;5.97;;;1.40;;
69280;SDS011;56392;51.082;17.080;2023-06-04T11:31:54;5.05;;;1.30;;
69280;SDS011;56392;51.082;17.080;2023-06-04T11:37:17;4.97;;;1.30;;
69280;SDS011;56392;51.082;17.080;2023-06-04T11:42:40;5.32;;;1.50;;
69280;SDS011;56392;51.082;17.080;2023-06-04T11:48:07;6.35;;;1.40;;
69280;SDS011;56392;51.082;17.080;2023-06-04T11:53:33;5.47;;;1.50;;
69280;SDS011;56392;51.082;17.080;2023-06-04T11:58:57;6.70;;;1.50;;
69280;SDS011;56392;51.082;17.080;2023-06-04T12:04:22;6.40;;;1.40;;
69280;SDS011;56392;51.082;17.080;2023-06-04T12:09:45;6.17;;;1.50;;
69280;SDS011;56392;51.082;17.080;2023-06-04T12:15:08;5.15;;;1.40;;
69280;SDS011;56392;51.082;17.080;2023-06-04T12:20:34;9.23;;;1.40;;
69280;SDS011;56392;51.082;17.080;2023-06-04T12:25:57;7.13;;;1.47;;
69280;SDS011;56392;51.082;17.080;2023-06-04T12:31:23;6.17;;;1.57;;
69280;SDS011;56392;51.082;17.080;2023-06-04T12:36:48;5.68;;;1.60;;
69280;SDS011;56392;51.082;17.080;2023-06-04T12:42:11;5.18;;;1.60;;
69280;SDS011;56392;51.082;17.080;2023-06-04T12:47:34;6.10;;;1.40;;
69280;SDS011;56392;51.082;17.080;2023-06-04T12:52:58;5.95;;;1.55;;
69280;SDS011;56392;51.082;17.080;2023-06-04T12:58:21;5.88;;;1.48;;
69280;SDS011;56392;51.082;17.080;2023-06-04T13:03:44;6.00;;;1.63;;
69280;SDS011;56392;51.082;17.080;2023-06-04T13:09:09;7.95;;;1.70;;
69280;SDS011;56392;51.082;17.080;2023-06-04T13:14:32;7.00;;;1.85;;
69280;SDS011;56392;51.082;17.080;2023-06-04T13:19:55;7.43;;;1.80;;
69280;SDS011;56392;51.082;17.080;2023-06-04T13:25:19;5.50;;;1.63;;
69280;SDS011;56392;51.082;17.080;2023-06-04T13:30:42;4.32;;;1.33;;
69280;SDS011;56392;51.082;17.080;2023-06-04T13:36:06;4.13;;;1.13;;
69280;SDS011;56392;51.082;17.080;2023-06-04T13:41:30;5.80;;;1.77;;
69280;SDS011;56392;51.082;17.080;2023-06-04T13:46:53;5.93;;;1.50;;
69280;SDS011;56392;51.082;17.080;2023-06-04T13:52:17;5.88;;;1.33;;
69280;SDS011;56392;51.082;17.080;2023-06-04T13:57:41;5.27;;;1.60;;
69280;SDS011;56392;51.082;17.080;2023-06-04T14:03:04;8.27;;;1.50;;
69280;SDS011;56392;51.082;17.080;2023-06-04T14:08:27;5.43;;;1.55;;
69280;SDS011;56392;51.082;17.080;2023-06-04T14:13:52;6.47;;;1.50;;
69280;SDS011;56392;51.082;17.080;2023-06-04T14:19:15;5.83;;;1.40;;
69280;SDS011;56392;51.082;17.080;2023-06-04T14:24:39;5.95;;;1.50;;
69280;SDS011;56392;51.082;17.080;2023-06-04T14:30:05;4.80;;;1.23;;
69280;SDS011;56392;51.082;17.080;2023-06-04T14:35:29;6.97;;;1.57;;
69280;SDS011;56392;51.082;17.080;2023-06-04T14:40:52;6.53;;;1.55;;
69280;SDS011;56392;51.082;17.080;2023-06-04T14:46:18;5.75;;;1.52;;
69280;SDS011;56392;51.082;17.080;2023-06-04T14:51:41;5.50;;;1.50;;
69280;SDS011;56392;51.082;17.080;2023-06-04T14:57:04;4.97;;;1.48;;
69280;SDS011;56392;51.082;17.080;2023-06-04T15:02:28;6.68;;;1.60;;
69280;SDS011;56392;51.082;17.080;2023-06-04T15:07:52;7.82;;;1.63;;
69280;SDS011;56392;51.082;17.080;2023-06-04T15:13:15;5.97;;;1.30;;
69280;SDS011;56392;51.082;17.080;2023-06-04T15:18:43;6.95;;;1.60;;
69280;SDS011;56392;51.082;17.080;2023-06-04T15:24:06;5.45;;;1.58;;
69280;SDS011;56392;51.082;17.080;2023-06-04T15:29:30;5.10;;;1.27;;
69280;SDS011;56392;51.082;17.080;2023-06-04T15:34:55;5.28;;;1.42;;
69280;SDS011;56392;51.082;17.080;2023-06-04T15:40:19;4.63;;;1.40;;
69280;SDS011;56392;51.082;17.080;2023-06-04T15:45:42;5.33;;;1.43;;
69280;SDS011;56392;51.082;17.080;2023-06-04T15:51:07;5.20;;;1.40;;
69280;SDS011;56392;51.082;17.080;2023-06-04T15:56:30;8.30;;;1.67;;
69280;SDS011;56392;51.082;17.080;2023-06-04T16:01:53;5.70;;;1.43;;
69280;SDS011;56392;51.082;17.080;2023-06-04T16:07:18;5.83;;;1.40;;
69280;SDS011;56392;51.082;17.080;2023-06-04T16:12:41;5.93;;;1.40;;
69280;SDS011;56392;51.082;17.080;2023-06-04T16:18:04;8.70;;;1.40;;
69280;SDS011;56392;51.082;17.080;2023-06-04T16:23:28;5.63;;;1.40;;
69280;SDS011;56392;51.082;17.080;2023-06-04T16:28:51;5.03;;;1.40;;
69280;SDS011;56392;51.082;17.080;2023-06-04T16:34:14;7.20;;;1.45;;
69280;SDS011;56392;51.082;17.080;2023-06-04T16:39:39;6.43;;;1.37;;
69280;SDS011;56392;51.082;17.080;2023-06-04T16:45:02;6.97;;;1.30;;
69280;SDS011;56392;51.082;17.080;2023-06-04T16:50:26;4.60;;;1.23;;
69280;SDS011;56392;51.082;17.080;2023-06-04T16:55:50;5.35;;;1.30;;
69280;SDS011;56392;51.082;17.080;2023-06-04T17:01:16;5.90;;;1.43;;
69280;SDS011;56392;51.082;17.080;2023-06-04T17:06:39;5.30;;;1.30;;
69280;SDS011;56392;51.082;17.080;2023-06-04T17:12:04;5.38;;;1.38;;
69280;SDS011;56392;51.082;17.080;2023-06-04T17:17:29;5.00;;;1.40;;
69280;SDS011;56392;51.082;17.080;2023-06-04T17:22:52;6.45;;;1.20;;
69280;SDS011;56392;51.082;17.080;2023-06-04T17:28:16;5.95;;;1.38;;
69280;SDS011;56392;51.082;17.080;2023-06-04T17:33:39;11.87;;;1.57;;
69280;SDS011;56392;51.082;17.080;2023-06-04T17:39:03;8.82;;;1.55;;
69280;SDS011;56392;51.082;17.080;2023-06-04T17:44:27;5.22;;;1.30;;
69280;SDS011;56392;51.082;17.080;2023-06-04T17:49:50;12.40;;;1.90;;
69280;SDS011;56392;51.082;17.080;2023-06-04T17:55:14;22.43;;;3.73;;
69280;SDS011;56392;51.082;17.080;2023-06-04T18:00:41;24.35;;;3.58;;
69280;SDS011;56392;51.082;17.080;2023-06-04T18:06:04;12.15;;;1.80;;
69280;SDS011;56392;51.082;17.080;2023-06-04T18:11:29;11.07;;;1.60;;
69280;SDS011;56392;51.082;17.080;2023-06-04T18:16:53;8.00;;;1.48;;
69280;SDS011;56392;51.082;17.080;2023-06-04T18:22:16;8.95;;;1.90;;
69280;SDS011;56392;51.082;17.080;2023-06-04T18:27:39;12.97;;;1.60;;
69280;SDS011;56392;51.082;17.080;2023-06-04T18:33:07;29.17;;;2.55;;
69280;SDS011;56392;51.082;17.080;2023-06-04T18:38:30;13.32;;;1.80;;
69280;SDS011;56392;51.082;17.080;2023-06-04T18:43:54;14.17;;;1.70;;
69280;SDS011;56392;51.082;17.080;2023-06-04T18:49:19;11.63;;;1.20;;
69280;SDS011;56392;51.082;17.080;2023-06-04T18:54:43;18.23;;;1.27;;
69280;SDS011;56392;51.082;17.080;2023-06-04T19:00:06;13.82;;;1.40;;
69280;SDS011;56392;51.082;17.080;2023-06-04T19:05:32;13.87;;;2.07;;
69280;SDS011;56392;51.082;17.080;2023-06-04T19:10:55;16.33;;;1.60;;
69280;SDS011;56392;51.082;17.080;2023-06-04T19:16:18;11.45;;;1.10;;
69280;SDS011;56392;51.082;17.080;2023-06-04T19:21:45;10.70;;;1.50;;
69280;SDS011;56392;51.082;17.080;2023-06-04T19:27:09;7.05;;;1.42;;
69280;SDS011;56392;51.082;17.080;2023-06-04T19:32:32;11.95;;;2.15;;
69280;SDS011;56392;51.082;17.080;2023-06-04T19:38:00;7.65;;;2.13;;
69280;SDS011;56392;51.082;17.080;2023-06-04T19:43:25;10.67;;;2.10;;
69280;SDS011;56392;51.082;17.080;2023-06-04T19:48:51;8.48;;;2.00;;
69280;SDS011;56392;51.082;17.080;2023-06-04T19:54:16;11.25;;;1.90;;
69280;SDS011;56392;51.082;17.080;2023-06-04T19:59:40;11.63;;;2.10;;
69280;SDS011;56392;51.082;17.080;2023-06-04T20:05:04;12.90;;;2.08;;
69280;SDS011;56392;51.082;17.080;2023-06-04T20:10:30;7.15;;;2.33;;
69280;SDS011;56392;51.082;17.080;2023-06-04T20:15:54;7.70;;;1.77;;
69280;SDS011;56392;51.082;17.080;2023-06-04T20:21:18;6.65;;;1.90;;
69280;SDS011;56392;51.082;17.080;2023-06-04T20:26:43;7.43;;;1.77;;
69280;SDS011;56392;51.082;17.080;2023-06-04T20:32:07;5.83;;;1.50;;
69280;SDS011;56392;51.082;17.080;2023-06-04T20:37:30;9.23;;;1.90;;
69280;SDS011;56392;51.082;17.080;2023-06-04T20:42:58;7.03;;;2.03;;
69280;SDS011;56392;51.082;17.080;2023-06-04T20:48:22;5.78;;;1.75;;
69280;SDS011;56392;51.082;17.080;2023-06-04T20:53:45;6.07;;;1.60;;
69280;SDS011;56392;51.082;17.080;2023-06-04T20:59:10;8.27;;;2.17;;
69280;SDS011;56392;51.082;17.080;2023-06-04T21:04:33;8.35;;;1.90;;
69280;SDS011;56392;51.082;17.080;2023-06-04T21:09:56;6.40;;;1.77;;
69280;SDS011;56392;51.082;17.080;2023-06-04T21:15:20;6.35;;;1.58;;
69280;SDS011;56392;51.082;17.080;2023-06-04T21:20:44;7.05;;;1.70;;
69280;SDS011;56392;51.082;17.080;2023-06-04T21:26:08;6.90;;;1.73;;
69280;SDS011;56392;51.082;17.080;2023-06-04T21:31:32;7.90;;;1.90;;
69280;SDS011;56392;51.082;17.080;2023-06-04T21:36:55;9.43;;;2.03;;
69280;SDS011;56392;51.082;17.080;2023-06-04T21:42:18;6.55;;;2.00;;
69280;SDS011;56392;51.082;17.080;2023-06-04T21:47:42;6.80;;;1.80;;
69280;SDS011;56392;51.082;17.080;2023-06-04T21:53:05;8.52;;;1.70;;
69280;SDS011;56392;51.082;17.080;2023-06-04T21:58:28;8.45;;;1.73;;
69280;SDS011;56392;51.082;17.080;2023-06-04T22:03:53;8.63;;;1.80;;
69280;SDS011;56392;51.082;17.080;2023-06-04T22:09:16;12.35;;;2.03;;
69280;SDS011;56392;51.082;17.080;2023-06-04T22:14:39;6.90;;;1.73;;
69280;SDS011;56392;51.082;17.080;2023-06-04T22:20:07;6.43;;;1.70;;
69280;SDS011;56392;51.082;17.080;2023-06-04T22:25:33;7.73;;;1.70;;
69280;SDS011;56392;51.082;17.080;2023-06-04T22:30:57;8.07;;;1.90;;
69280;SDS011;56392;51.082;17.080;2023-06-04T22:36:21;6.55;;;1.77;;
69280;SDS011;56392;51.082;17.080;2023-06-04T22:41:44;7.60;;;2.10;;
69280;SDS011;56392;51.082;17.080;2023-06-04T22:47:07;5.57;;;1.80;;
69280;SDS011;56392;51.082;17.080;2023-06-04T22:52:31;7.85;;;1.90;;
69280;SDS011;56392;51.082;17.080;2023-06-04T22:57:54;5.70;;;1.80;;
69280;SDS011;56392;51.082;17.080;2023-06-04T23:03:18;6.07;;;1.73;;
69280;SDS011;56392;51.082;17.080;2023-06-04T23:08:43;5.53;;;1.75;;
69280;SDS011;56392;51.082;17.080;2023-06-04T23:14:06;6.03;;;1.80;;
69280;SDS011;56392;51.082;17.080;2023-06-04T23:19:29;6.13;;;1.70;;
69280;SDS011;56392;51.082;17.080;2023-06-04T23:24:54;7.97;;;1.90;;
69280;SDS011;56392;51.082;17.080;2023-06-04T23:30:17;6.15;;;1.90;;
69280;SDS011;56392;51.082;17.080;2023-06-04T23:35:40;6.80;;;2.03;;
69280;SDS011;56392;51.082;17.080;2023-06-04T23:41:05;6.55;;;2.00;;
69280;SDS011;56392;51.082;17.080;2023-06-04T23:46:28;7.35;;;2.10;;
69280;SDS011;56392;51.082;17.080;2023-06-04T23:51:51;6.53;;;1.93;;
69280;SDS011;56392;51.082;17.080;2023-06-04T23:57:15;6.70;;;1.80;;
